sensor_id;sensor_type;location;lat;lon;timestamp;P1;durP1;ratioP1;P2;durP2;ratioP2
2408;SDS011;8463;48.094;7.970;2022-07-04T00:00:29;1.43;;;1.30;;
2408;SDS011;8463;48.094;7.970;2022-07-04T00:02:55;1.57;;;1.47;;
2408;SDS011;8463;48.094;7.970;2022-07-04T00:05:20;2.50;;;1.50;;
2408;SDS011;8463;48.094;7.970;2022-07-04T00:07:47;2.37;;;1.83;;
2408;SDS011;8463;48.094;7.970;2022-07-04T00:10:17;1.30;;;1.20;;
2408;SDS011;8463;48.094;7.970;2022-07-04T00:12:44;2.50;;;1.30;;
2408;SDS011;8463;48.094;7.970;2022-07-04T00:15:10;3.47;;;1.77;;
2408;SDS011;8463;48.094;7.970;2022-07-04T00:17:37;1.57;;;1.40;;
2408;SDS011;8463;48.094;7.970;2022-07-04T00:20:03;1.70;;;1.60;;
2408;SDS011;8463;48.094;7.970;2022-07-04T00:22:30;3.33;;;1.70;;
2408;SDS011;8463;48.094;7.970;2022-07-04T00:24:56;1.47;;;1.20;;
2408;SDS011;8463;48.094;7.970;2022-07-04T00:27:22;1.50;;;1.40;;
2408;SDS011;8463;48.094;7.970;2022-07-04T00:29:48;2.70;;;1.50;;
2408;SDS011;8463;48.094;7.970;2022-07-04T00:32:13;1.60;;;1.50;;
2408;SDS011;8463;48.094;7.970;2022-07-04T00:34:39;3.20;;;1.40;;
2408;SDS011;8463;48.094;7.970;2022-07-04T00:37:05;2.80;;;1.60;;
2408;SDS011;8463;48.094;7.970;2022-07-04T00:39:31;1.70;;;1.60;;
2408;SDS011;8463;48.094;7.970;2022-07-04T00:41:56;1.40;;;1.30;;
2408;SDS011;8463;48.094;7.970;2022-07-04T00:44:22;1.87;;;1.50;;
2408;SDS011;8463;48.094;7.970;2022-07-04T00:46:48;2.70;;;1.50;;
2408;SDS011;8463;48.094;7.970;2022-07-04T00:49:14;1.57;;;1.47;;
2408;SDS011;8463;48.094;7.970;2022-07-04T00:51:41;2.20;;;1.80;;
2408;SDS011;8463;48.094;7.970;2022-07-04T00:54:08;1.70;;;1.40;;
2408;SDS011;8463;48.094;7.970;2022-07-04T00:56:39;1.40;;;1.30;;
2408;SDS011;8463;48.094;7.970;2022-07-04T00:59:06;2.73;;;1.40;;
2408;SDS011;8463;48.094;7.970;2022-07-04T01:01:32;7.00;;;1.67;;
2408;SDS011;8463;48.094;7.970;2022-07-04T01:03:58;1.70;;;1.43;;
2408;SDS011;8463;48.094;7.970;2022-07-04T01:06:24;1.30;;;1.20;;
2408;SDS011;8463;48.094;7.970;2022-07-04T01:08:50;2.17;;;1.87;;
2408;SDS011;8463;48.094;7.970;2022-07-04T01:11:16;3.23;;;1.70;;
2408;SDS011;8463;48.094;7.970;2022-07-04T01:13:42;1.60;;;1.50;;
2408;SDS011;8463;48.094;7.970;2022-07-04T01:16:08;4.20;;;1.97;;
2408;SDS011;8463;48.094;7.970;2022-07-04T01:18:35;2.10;;;2.00;;
2408;SDS011;8463;48.094;7.970;2022-07-04T01:21:01;2.10;;;1.90;;
2408;SDS011;8463;48.094;7.970;2022-07-04T01:23:27;3.83;;;1.37;;
2408;SDS011;8463;48.094;7.970;2022-07-04T01:25:53;1.97;;;1.70;;
2408;SDS011;8463;48.094;7.970;2022-07-04T01:28:20;2.03;;;1.57;;
2408;SDS011;8463;48.094;7.970;2022-07-04T01:30:46;2.90;;;1.70;;
2408;SDS011;8463;48.094;7.970;2022-07-04T01:33:12;1.83;;;1.73;;
2408;SDS011;8463;48.094;7.970;2022-07-04T01:35:38;2.70;;;1.80;;
2408;SDS011;8463;48.094;7.970;2022-07-04T01:38:04;2.23;;;1.80;;
2408;SDS011;8463;48.094;7.970;2022-07-04T01:40:29;2.80;;;1.90;;
2408;SDS011;8463;48.094;7.970;2022-07-04T01:42:55;2.67;;;1.80;;
2408;SDS011;8463;48.094;7.970;2022-07-04T01:45:23;2.20;;;1.97;;
2408;SDS011;8463;48.094;7.970;2022-07-04T01:47:49;2.10;;;1.90;;
2408;SDS011;8463;48.094;7.970;2022-07-04T01:50:15;2.40;;;2.20;;
2408;SDS011;8463;48.094;7.970;2022-07-04T01:52:41;2.20;;;2.00;;
2408;SDS011;8463;48.094;7.970;2022-07-04T01:55:07;2.57;;;2.10;;
2408;SDS011;8463;48.094;7.970;2022-07-04T01:57:34;2.00;;;1.90;;
2408;SDS011;8463;48.094;7.970;2022-07-04T02:00:00;2.10;;;1.70;;
2408;SDS011;8463;48.094;7.970;2022-07-04T02:02:44;1.60;;;1.50;;
2408;SDS011;8463;48.094;7.970;2022-07-04T02:05:10;5.20;;;1.73;;
2408;SDS011;8463;48.094;7.970;2022-07-04T02:07:36;1.53;;;1.43;;
2408;SDS011;8463;48.094;7.970;2022-07-04T02:10:02;1.70;;;1.50;;
2408;SDS011;8463;48.094;7.970;2022-07-04T02:12:28;1.90;;;1.33;;
2408;SDS011;8463;48.094;7.970;2022-07-04T02:15:12;1.30;;;1.20;;
2408;SDS011;8463;48.094;7.970;2022-07-04T02:17:37;1.73;;;1.57;;
2408;SDS011;8463;48.094;7.970;2022-07-04T02:20:03;2.40;;;1.47;;
2408;SDS011;8463;48.094;7.970;2022-07-04T02:22:30;1.40;;;1.30;;
2408;SDS011;8463;48.094;7.970;2022-07-04T02:24:56;2.63;;;1.67;;
2408;SDS011;8463;48.094;7.970;2022-07-04T02:27:21;1.70;;;1.60;;
2408;SDS011;8463;48.094;7.970;2022-07-04T02:29:47;3.00;;;2.00;;
2408;SDS011;8463;48.094;7.970;2022-07-04T02:32:13;2.23;;;2.03;;
2408;SDS011;8463;48.094;7.970;2022-07-04T02:34:38;1.47;;;1.37;;
2408;SDS011;8463;48.094;7.970;2022-07-04T02:37:04;1.80;;;1.70;;
2408;SDS011;8463;48.094;7.970;2022-07-04T02:39:30;1.87;;;1.77;;
2408;SDS011;8463;48.094;7.970;2022-07-04T02:41:56;1.80;;;1.70;;
2408;SDS011;8463;48.094;7.970;2022-07-04T02:44:21;1.60;;;1.50;;
2408;SDS011;8463;48.094;7.970;2022-07-04T02:46:47;3.33;;;1.90;;
2408;SDS011;8463;48.094;7.970;2022-07-04T02:49:13;4.80;;;1.93;;
2408;SDS011;8463;48.094;7.970;2022-07-04T02:51:38;1.83;;;1.67;;
2408;SDS011;8463;48.094;7.970;2022-07-04T02:54:04;1.33;;;1.20;;
2408;SDS011;8463;48.094;7.970;2022-07-04T02:56:30;1.97;;;1.73;;
2408;SDS011;8463;48.094;7.970;2022-07-04T02:58:56;2.33;;;1.70;;
2408;SDS011;8463;48.094;7.970;2022-07-04T03:01:21;3.13;;;1.83;;
2408;SDS011;8463;48.094;7.970;2022-07-04T03:03:47;2.07;;;1.87;;
2408;SDS011;8463;48.094;7.970;2022-07-04T03:06:13;1.43;;;1.33;;
2408;SDS011;8463;48.094;7.970;2022-07-04T03:08:39;2.07;;;1.87;;
2408;SDS011;8463;48.094;7.970;2022-07-04T03:11:04;2.77;;;2.00;;
2408;SDS011;8463;48.094;7.970;2022-07-04T03:13:31;5.50;;;1.80;;
2408;SDS011;8463;48.094;7.970;2022-07-04T03:15:56;1.83;;;1.63;;
2408;SDS011;8463;48.094;7.970;2022-07-04T03:18:22;3.83;;;1.67;;
2408;SDS011;8463;48.094;7.970;2022-07-04T03:20:48;1.70;;;1.60;;
2408;SDS011;8463;48.094;7.970;2022-07-04T03:23:14;1.80;;;1.70;;
2408;SDS011;8463;48.094;7.970;2022-07-04T03:25:40;3.77;;;2.23;;
2408;SDS011;8463;48.094;7.970;2022-07-04T03:28:07;1.93;;;1.80;;
2408;SDS011;8463;48.094;7.970;2022-07-04T03:30:33;2.57;;;1.60;;
2408;SDS011;8463;48.094;7.970;2022-07-04T03:32:59;2.03;;;1.60;;
2408;SDS011;8463;48.094;7.970;2022-07-04T03:35:25;2.13;;;1.90;;
2408;SDS011;8463;48.094;7.970;2022-07-04T03:37:50;3.30;;;1.70;;
2408;SDS011;8463;48.094;7.970;2022-07-04T03:40:17;1.73;;;1.63;;
2408;SDS011;8463;48.094;7.970;2022-07-04T03:42:44;1.97;;;1.80;;
2408;SDS011;8463;48.094;7.970;2022-07-04T03:45:09;2.70;;;1.73;;
2408;SDS011;8463;48.094;7.970;2022-07-04T03:47:35;2.23;;;1.67;;
2408;SDS011;8463;48.094;7.970;2022-07-04T03:50:01;2.40;;;2.20;;
2408;SDS011;8463;48.094;7.970;2022-07-04T03:52:27;3.80;;;2.80;;
2408;SDS011;8463;48.094;7.970;2022-07-04T03:54:54;2.50;;;2.30;;
2408;SDS011;8463;48.094;7.970;2022-07-04T03:57:19;2.37;;;2.20;;
2408;SDS011;8463;48.094;7.970;2022-07-04T03:59:45;2.97;;;1.90;;
2408;SDS011;8463;48.094;7.970;2022-07-04T04:02:11;2.80;;;2.13;;
2408;SDS011;8463;48.094;7.970;2022-07-04T04:04:36;3.07;;;2.30;;
2408;SDS011;8463;48.094;7.970;2022-07-04T04:07:21;3.03;;;2.83;;
2408;SDS011;8463;48.094;7.970;2022-07-04T04:09:46;2.67;;;2.47;;
2408;SDS011;8463;48.094;7.970;2022-07-04T04:12:12;6.33;;;2.17;;
2408;SDS011;8463;48.094;7.970;2022-07-04T04:14:38;2.90;;;2.70;;
2408;SDS011;8463;48.094;7.970;2022-07-04T04:17:03;2.83;;;2.13;;
2408;SDS011;8463;48.094;7.970;2022-07-04T04:19:29;2.67;;;2.47;;
2408;SDS011;8463;48.094;7.970;2022-07-04T04:21:55;2.53;;;2.33;;
2408;SDS011;8463;48.094;7.970;2022-07-04T04:24:21;3.30;;;2.40;;
2408;SDS011;8463;48.094;7.970;2022-07-04T04:26:46;2.43;;;2.23;;
2408;SDS011;8463;48.094;7.970;2022-07-04T04:29:12;2.53;;;1.70;;
2408;SDS011;8463;48.094;7.970;2022-07-04T04:31:38;2.17;;;2.00;;
2408;SDS011;8463;48.094;7.970;2022-07-04T04:34:04;4.53;;;2.63;;
2408;SDS011;8463;48.094;7.970;2022-07-04T04:36:30;2.70;;;1.87;;
2408;SDS011;8463;48.094;7.970;2022-07-04T04:38:56;2.57;;;2.20;;
2408;SDS011;8463;48.094;7.970;2022-07-04T04:41:21;5.20;;;4.60;;
2408;SDS011;8463;48.094;7.970;2022-07-04T04:43:47;5.63;;;4.97;;
2408;SDS011;8463;48.094;7.970;2022-07-04T04:46:13;4.53;;;4.13;;
2408;SDS011;8463;48.094;7.970;2022-07-04T04:48:39;2.90;;;2.70;;
2408;SDS011;8463;48.094;7.970;2022-07-04T04:51:04;2.30;;;2.10;;
2408;SDS011;8463;48.094;7.970;2022-07-04T04:53:30;2.37;;;2.17;;
2408;SDS011;8463;48.094;7.970;2022-07-04T04:55:56;2.63;;;1.90;;
2408;SDS011;8463;48.094;7.970;2022-07-04T04:58:22;2.47;;;2.27;;
2408;SDS011;8463;48.094;7.970;2022-07-04T05:00:48;2.47;;;2.27;;
2408;SDS011;8463;48.094;7.970;2022-07-04T05:03:15;2.00;;;1.90;;
2408;SDS011;8463;48.094;7.970;2022-07-04T05:05:41;2.63;;;2.33;;
2408;SDS011;8463;48.094;7.970;2022-07-04T05:08:08;2.90;;;2.17;;
2408;SDS011;8463;48.094;7.970;2022-07-04T05:10:34;2.60;;;2.40;;
2408;SDS011;8463;48.094;7.970;2022-07-04T05:12:59;2.80;;;2.10;;
2408;SDS011;8463;48.094;7.970;2022-07-04T05:15:25;3.43;;;2.30;;
2408;SDS011;8463;48.094;7.970;2022-07-04T05:17:51;2.33;;;1.90;;
2408;SDS011;8463;48.094;7.970;2022-07-04T05:20:16;2.07;;;1.87;;
2408;SDS011;8463;48.094;7.970;2022-07-04T05:22:42;1.80;;;1.70;;
2408;SDS011;8463;48.094;7.970;2022-07-04T05:25:08;1.60;;;1.50;;
2408;SDS011;8463;48.094;7.970;2022-07-04T05:27:34;1.80;;;1.37;;
2408;SDS011;8463;48.094;7.970;2022-07-04T05:30:00;2.20;;;1.60;;
2408;SDS011;8463;48.094;7.970;2022-07-04T05:32:26;2.00;;;1.67;;
2408;SDS011;8463;48.094;7.970;2022-07-04T05:34:52;1.53;;;1.43;;
2408;SDS011;8463;48.094;7.970;2022-07-04T05:37:17;1.80;;;1.40;;
2408;SDS011;8463;48.094;7.970;2022-07-04T05:39:43;2.23;;;1.80;;
2408;SDS011;8463;48.094;7.970;2022-07-04T05:42:09;6.17;;;1.70;;
2408;SDS011;8463;48.094;7.970;2022-07-04T05:44:35;1.27;;;1.10;;
2408;SDS011;8463;48.094;7.970;2022-07-04T05:47:01;1.93;;;1.20;;
2408;SDS011;8463;48.094;7.970;2022-07-04T05:49:27;2.50;;;1.43;;
2408;SDS011;8463;48.094;7.970;2022-07-04T05:51:52;1.17;;;1.07;;
2408;SDS011;8463;48.094;7.970;2022-07-04T05:54:18;1.43;;;1.33;;
2408;SDS011;8463;48.094;7.970;2022-07-04T05:56:44;1.37;;;1.27;;
2408;SDS011;8463;48.094;7.970;2022-07-04T05:59:09;1.67;;;1.50;;
2408;SDS011;8463;48.094;7.970;2022-07-04T06:01:36;1.23;;;1.13;;
2408;SDS011;8463;48.094;7.970;2022-07-04T06:04:02;2.10;;;1.33;;
2408;SDS011;8463;48.094;7.970;2022-07-04T06:06:29;2.30;;;1.70;;
2408;SDS011;8463;48.094;7.970;2022-07-04T06:08:55;1.60;;;1.50;;
2408;SDS011;8463;48.094;7.970;2022-07-04T06:11:24;1.50;;;1.40;;
2408;SDS011;8463;48.094;7.970;2022-07-04T06:13:50;2.67;;;1.50;;
2408;SDS011;8463;48.094;7.970;2022-07-04T06:16:16;1.60;;;1.50;;
2408;SDS011;8463;48.094;7.970;2022-07-04T06:18:42;1.90;;;1.80;;
2408;SDS011;8463;48.094;7.970;2022-07-04T06:21:08;1.57;;;1.47;;
2408;SDS011;8463;48.094;7.970;2022-07-04T06:23:34;1.67;;;1.37;;
2408;SDS011;8463;48.094;7.970;2022-07-04T06:26:00;1.63;;;1.53;;
2408;SDS011;8463;48.094;7.970;2022-07-04T06:28:26;1.50;;;1.40;;
2408;SDS011;8463;48.094;7.970;2022-07-04T06:30:51;1.93;;;1.83;;
2408;SDS011;8463;48.094;7.970;2022-07-04T06:33:17;1.80;;;1.57;;
2408;SDS011;8463;48.094;7.970;2022-07-04T06:35:44;1.63;;;1.53;;
2408;SDS011;8463;48.094;7.970;2022-07-04T06:38:11;2.07;;;1.77;;
2408;SDS011;8463;48.094;7.970;2022-07-04T06:40:38;2.30;;;2.10;;
2408;SDS011;8463;48.094;7.970;2022-07-04T06:43:04;1.77;;;1.53;;
2408;SDS011;8463;48.094;7.970;2022-07-04T06:45:30;2.73;;;1.80;;
2408;SDS011;8463;48.094;7.970;2022-07-04T06:47:58;1.70;;;1.60;;
2408;SDS011;8463;48.094;7.970;2022-07-04T06:50:24;1.83;;;1.73;;
2408;SDS011;8463;48.094;7.970;2022-07-04T06:52:50;2.30;;;1.70;;
2408;SDS011;8463;48.094;7.970;2022-07-04T06:55:16;1.90;;;1.80;;
2408;SDS011;8463;48.094;7.970;2022-07-04T06:57:53;2.10;;;1.93;;
2408;SDS011;8463;48.094;7.970;2022-07-04T07:00:19;2.00;;;1.60;;
2408;SDS011;8463;48.094;7.970;2022-07-04T07:02:44;3.07;;;1.67;;
2408;SDS011;8463;48.094;7.970;2022-07-04T07:05:10;3.23;;;1.83;;
2408;SDS011;8463;48.094;7.970;2022-07-04T07:07:36;2.60;;;1.87;;
2408;SDS011;8463;48.094;7.970;2022-07-04T07:10:01;3.30;;;1.93;;
2408;SDS011;8463;48.094;7.970;2022-07-04T07:12:28;2.90;;;2.03;;
2408;SDS011;8463;48.094;7.970;2022-07-04T07:14:54;5.83;;;1.60;;
2408;SDS011;8463;48.094;7.970;2022-07-04T07:17:20;3.33;;;1.73;;
2408;SDS011;8463;48.094;7.970;2022-07-04T07:19:46;2.23;;;2.00;;
2408;SDS011;8463;48.094;7.970;2022-07-04T07:22:12;2.00;;;1.27;;
2408;SDS011;8463;48.094;7.970;2022-07-04T07:24:38;1.50;;;1.40;;
2408;SDS011;8463;48.094;7.970;2022-07-04T07:27:04;1.90;;;1.70;;
2408;SDS011;8463;48.094;7.970;2022-07-04T07:29:30;1.30;;;1.20;;
2408;SDS011;8463;48.094;7.970;2022-07-04T07:31:56;1.90;;;1.50;;
2408;SDS011;8463;48.094;7.970;2022-07-04T07:34:22;2.00;;;1.90;;
2408;SDS011;8463;48.094;7.970;2022-07-04T07:36:48;3.37;;;1.93;;
2408;SDS011;8463;48.094;7.970;2022-07-04T07:39:13;2.10;;;1.40;;
2408;SDS011;8463;48.094;7.970;2022-07-04T07:41:39;5.30;;;2.20;;
2408;SDS011;8463;48.094;7.970;2022-07-04T07:44:05;4.83;;;2.20;;
2408;SDS011;8463;48.094;7.970;2022-07-04T07:46:30;3.60;;;2.20;;
2408;SDS011;8463;48.094;7.970;2022-07-04T07:48:57;2.60;;;1.70;;
2408;SDS011;8463;48.094;7.970;2022-07-04T07:51:23;3.27;;;1.87;;
2408;SDS011;8463;48.094;7.970;2022-07-04T07:53:49;2.07;;;1.60;;
2408;SDS011;8463;48.094;7.970;2022-07-04T07:56:14;2.10;;;1.60;;
2408;SDS011;8463;48.094;7.970;2022-07-04T07:58:40;2.50;;;1.73;;
2408;SDS011;8463;48.094;7.970;2022-07-04T08:01:06;2.23;;;1.40;;
2408;SDS011;8463;48.094;7.970;2022-07-04T08:03:31;2.23;;;1.80;;
2408;SDS011;8463;48.094;7.970;2022-07-04T08:06:15;4.50;;;1.83;;
2408;SDS011;8463;48.094;7.970;2022-07-04T08:08:41;3.73;;;1.87;;
2408;SDS011;8463;48.094;7.970;2022-07-04T08:11:08;2.17;;;1.87;;
2408;SDS011;8463;48.094;7.970;2022-07-04T08:13:34;2.10;;;2.00;;
2408;SDS011;8463;48.094;7.970;2022-07-04T08:16:00;8.30;;;2.83;;
2408;SDS011;8463;48.094;7.970;2022-07-04T08:18:26;3.97;;;2.40;;
2408;SDS011;8463;48.094;7.970;2022-07-04T08:20:52;1.77;;;1.50;;
2408;SDS011;8463;48.094;7.970;2022-07-04T08:23:18;1.90;;;1.80;;
2408;SDS011;8463;48.094;7.970;2022-07-04T08:25:43;2.03;;;1.60;;
2408;SDS011;8463;48.094;7.970;2022-07-04T08:28:09;2.40;;;1.30;;
2408;SDS011;8463;48.094;7.970;2022-07-04T08:30:35;2.90;;;2.10;;
2408;SDS011;8463;48.094;7.970;2022-07-04T08:33:01;2.80;;;1.70;;
2408;SDS011;8463;48.094;7.970;2022-07-04T08:35:26;2.23;;;1.50;;
2408;SDS011;8463;48.094;7.970;2022-07-04T08:37:52;7.00;;;2.90;;
2408;SDS011;8463;48.094;7.970;2022-07-04T08:40:23;2.10;;;1.70;;
2408;SDS011;8463;48.094;7.970;2022-07-04T08:42:50;6.23;;;2.30;;
2408;SDS011;8463;48.094;7.970;2022-07-04T08:45:16;2.40;;;1.83;;
2408;SDS011;8463;48.094;7.970;2022-07-04T08:47:47;2.37;;;2.17;;
2408;SDS011;8463;48.094;7.970;2022-07-04T08:50:29;2.50;;;2.30;;
2408;SDS011;8463;48.094;7.970;2022-07-04T08:53:00;2.60;;;1.67;;
2408;SDS011;8463;48.094;7.970;2022-07-04T08:55:34;2.10;;;1.67;;
2408;SDS011;8463;48.094;7.970;2022-07-04T08:58:19;1.80;;;1.60;;
2408;SDS011;8463;48.094;7.970;2022-07-04T09:00:58;7.10;;;2.77;;
2408;SDS011;8463;48.094;7.970;2022-07-04T09:03:28;2.37;;;1.90;;
2408;SDS011;8463;48.094;7.970;2022-07-04T09:05:55;2.40;;;1.50;;
2408;SDS011;8463;48.094;7.970;2022-07-04T09:08:22;5.80;;;1.70;;
2408;SDS011;8463;48.094;7.970;2022-07-04T09:10:48;4.17;;;1.73;;
2408;SDS011;8463;48.094;7.970;2022-07-04T09:13:15;2.40;;;1.90;;
2408;SDS011;8463;48.094;7.970;2022-07-04T09:15:42;3.20;;;2.10;;
2408;SDS011;8463;48.094;7.970;2022-07-04T09:21:06;1.90;;;1.80;;
2408;SDS011;8463;48.094;7.970;2022-07-04T09:23:38;3.90;;;1.70;;
2408;SDS011;8463;48.094;7.970;2022-07-04T09:31:23;1.60;;;1.50;;
2408;SDS011;8463;48.094;7.970;2022-07-04T09:33:51;1.60;;;1.50;;
2408;SDS011;8463;48.094;7.970;2022-07-04T09:36:18;3.00;;;1.60;;
2408;SDS011;8463;48.094;7.970;2022-07-04T09:44:21;1.73;;;1.63;;
2408;SDS011;8463;48.094;7.970;2022-07-04T09:46:47;3.40;;;1.90;;
2408;SDS011;8463;48.094;7.970;2022-07-04T09:49:13;2.53;;;2.10;;
2408;SDS011;8463;48.094;7.970;2022-07-04T09:51:41;3.37;;;2.10;;
2408;SDS011;8463;48.094;7.970;2022-07-04T09:54:18;3.70;;;1.87;;
2408;SDS011;8463;48.094;7.970;2022-07-04T09:57:03;2.33;;;1.80;;
2408;SDS011;8463;48.094;7.970;2022-07-04T09:59:30;2.17;;;1.97;;
2408;SDS011;8463;48.094;7.970;2022-07-04T10:04:51;2.63;;;1.70;;
2408;SDS011;8463;48.094;7.970;2022-07-04T10:10:26;2.33;;;2.00;;
2408;SDS011;8463;48.094;7.970;2022-07-04T10:13:04;2.90;;;2.00;;
2408;SDS011;8463;48.094;7.970;2022-07-04T10:15:32;5.37;;;2.33;;
2408;SDS011;8463;48.094;7.970;2022-07-04T10:17:59;2.83;;;2.63;;
2408;SDS011;8463;48.094;7.970;2022-07-04T10:20:25;2.20;;;2.00;;
2408;SDS011;8463;48.094;7.970;2022-07-04T10:22:51;2.70;;;1.97;;
2408;SDS011;8463;48.094;7.970;2022-07-04T10:25:17;7.83;;;1.80;;
2408;SDS011;8463;48.094;7.970;2022-07-04T10:27:43;2.40;;;2.20;;
2408;SDS011;8463;48.094;7.970;2022-07-04T10:30:11;1.90;;;1.80;;
2408;SDS011;8463;48.094;7.970;2022-07-04T10:32:40;2.83;;;2.43;;
2408;SDS011;8463;48.094;7.970;2022-07-04T10:35:14;2.73;;;1.83;;
2408;SDS011;8463;48.094;7.970;2022-07-04T10:45:56;2.57;;;2.37;;
2408;SDS011;8463;48.094;7.970;2022-07-04T10:48:27;2.40;;;1.90;;
2408;SDS011;8463;48.094;7.970;2022-07-04T10:51:03;4.23;;;2.53;;
2408;SDS011;8463;48.094;7.970;2022-07-04T10:53:30;2.90;;;2.70;;
2408;SDS011;8463;48.094;7.970;2022-07-04T10:58:52;3.40;;;1.97;;
2408;SDS011;8463;48.094;7.970;2022-07-04T11:01:18;1.60;;;1.50;;
2408;SDS011;8463;48.094;7.970;2022-07-04T11:03:47;2.73;;;1.93;;
2408;SDS011;8463;48.094;7.970;2022-07-04T11:11:59;2.10;;;1.90;;
2408;SDS011;8463;48.094;7.970;2022-07-04T11:17:09;2.67;;;2.00;;
2408;SDS011;8463;48.094;7.970;2022-07-04T11:19:37;1.93;;;1.80;;
2408;SDS011;8463;48.094;7.970;2022-07-04T11:22:06;2.43;;;1.70;;
2408;SDS011;8463;48.094;7.970;2022-07-04T11:24:34;2.40;;;2.20;;
2408;SDS011;8463;48.094;7.970;2022-07-04T11:27:01;3.80;;;1.97;;
2408;SDS011;8463;48.094;7.970;2022-07-04T11:29:27;2.10;;;1.83;;
2408;SDS011;8463;48.094;7.970;2022-07-04T11:31:54;2.07;;;1.80;;
2408;SDS011;8463;48.094;7.970;2022-07-04T11:34:20;2.17;;;1.97;;
2408;SDS011;8463;48.094;7.970;2022-07-04T11:36:48;2.80;;;2.13;;
2408;SDS011;8463;48.094;7.970;2022-07-04T11:39:16;5.27;;;2.40;;
2408;SDS011;8463;48.094;7.970;2022-07-04T11:41:44;2.37;;;2.17;;
2408;SDS011;8463;48.094;7.970;2022-07-04T11:44:35;1.90;;;1.70;;
2408;SDS011;8463;48.094;7.970;2022-07-04T11:47:24;3.93;;;2.20;;
2408;SDS011;8463;48.094;7.970;2022-07-04T11:49:52;2.37;;;2.17;;
2408;SDS011;8463;48.094;7.970;2022-07-04T11:52:20;1.80;;;1.70;;
2408;SDS011;8463;48.094;7.970;2022-07-04T11:54:49;3.50;;;2.17;;
2408;SDS011;8463;48.094;7.970;2022-07-04T11:59:58;2.40;;;2.00;;
2408;SDS011;8463;48.094;7.970;2022-07-04T12:02:32;2.20;;;2.00;;
2408;SDS011;8463;48.094;7.970;2022-07-04T12:04:58;2.17;;;1.97;;
2408;SDS011;8463;48.094;7.970;2022-07-04T12:07:26;1.87;;;1.67;;
2408;SDS011;8463;48.094;7.970;2022-07-04T12:09:53;4.63;;;2.17;;
2408;SDS011;8463;48.094;7.970;2022-07-04T12:12:20;2.17;;;2.00;;
2408;SDS011;8463;48.094;7.970;2022-07-04T12:15:00;2.33;;;2.00;;
2408;SDS011;8463;48.094;7.970;2022-07-04T12:17:31;2.30;;;2.10;;
2408;SDS011;8463;48.094;7.970;2022-07-04T12:22:36;3.40;;;2.33;;
2408;SDS011;8463;48.094;7.970;2022-07-04T12:25:22;1.73;;;1.63;;
2408;SDS011;8463;48.094;7.970;2022-07-04T12:30:26;2.67;;;1.60;;
2408;SDS011;8463;48.094;7.970;2022-07-04T12:33:00;1.87;;;1.77;;
2408;SDS011;8463;48.094;7.970;2022-07-04T12:35:44;2.43;;;2.10;;
2408;SDS011;8463;48.094;7.970;2022-07-04T12:43:24;3.47;;;2.20;;
2408;SDS011;8463;48.094;7.970;2022-07-04T12:46:06;2.33;;;2.03;;
2408;SDS011;8463;48.094;7.970;2022-07-04T12:48:36;2.40;;;2.20;;
2408;SDS011;8463;48.094;7.970;2022-07-04T12:51:13;3.70;;;2.07;;
2408;SDS011;8463;48.094;7.970;2022-07-04T12:53:42;3.10;;;2.00;;
2408;SDS011;8463;48.094;7.970;2022-07-04T12:56:09;2.10;;;1.90;;
2408;SDS011;8463;48.094;7.970;2022-07-04T12:58:51;2.03;;;1.50;;
2408;SDS011;8463;48.094;7.970;2022-07-04T13:01:17;2.10;;;1.90;;
2408;SDS011;8463;48.094;7.970;2022-07-04T13:03:42;2.10;;;1.90;;
2408;SDS011;8463;48.094;7.970;2022-07-04T13:06:08;2.30;;;2.10;;
2408;SDS011;8463;48.094;7.970;2022-07-04T13:08:34;5.50;;;2.00;;
2408;SDS011;8463;48.094;7.970;2022-07-04T13:10:59;1.80;;;1.70;;
2408;SDS011;8463;48.094;7.970;2022-07-04T13:13:45;4.33;;;1.93;;
2408;SDS011;8463;48.094;7.970;2022-07-04T13:16:11;2.80;;;1.80;;
2408;SDS011;8463;48.094;7.970;2022-07-04T13:18:36;2.13;;;1.60;;
2408;SDS011;8463;48.094;7.970;2022-07-04T13:21:02;2.70;;;2.33;;
2408;SDS011;8463;48.094;7.970;2022-07-04T13:23:28;3.57;;;2.53;;
2408;SDS011;8463;48.094;7.970;2022-07-04T13:25:54;2.47;;;2.03;;
2408;SDS011;8463;48.094;7.970;2022-07-04T13:28:19;1.87;;;1.77;;
2408;SDS011;8463;48.094;7.970;2022-07-04T13:30:45;2.13;;;1.97;;
2408;SDS011;8463;48.094;7.970;2022-07-04T13:33:11;2.37;;;1.97;;
2408;SDS011;8463;48.094;7.970;2022-07-04T13:35:36;1.90;;;1.80;;
2408;SDS011;8463;48.094;7.970;2022-07-04T13:38:02;1.90;;;1.70;;
2408;SDS011;8463;48.094;7.970;2022-07-04T13:40:27;1.60;;;1.50;;
2408;SDS011;8463;48.094;7.970;2022-07-04T13:42:54;3.23;;;1.67;;
2408;SDS011;8463;48.094;7.970;2022-07-04T13:45:23;2.10;;;2.00;;
2408;SDS011;8463;48.094;7.970;2022-07-04T13:47:53;3.97;;;2.13;;
2408;SDS011;8463;48.094;7.970;2022-07-04T13:50:19;1.77;;;1.60;;
2408;SDS011;8463;48.094;7.970;2022-07-04T13:52:46;1.77;;;1.67;;
2408;SDS011;8463;48.094;7.970;2022-07-04T13:55:12;1.40;;;1.30;;
2408;SDS011;8463;48.094;7.970;2022-07-04T13:57:37;2.73;;;1.67;;
2408;SDS011;8463;48.094;7.970;2022-07-04T14:00:04;1.67;;;1.20;;
2408;SDS011;8463;48.094;7.970;2022-07-04T14:02:30;3.40;;;1.50;;
2408;SDS011;8463;48.094;7.970;2022-07-04T14:04:56;2.87;;;2.60;;
2408;SDS011;8463;48.094;7.970;2022-07-04T14:07:22;2.10;;;1.60;;
2408;SDS011;8463;48.094;7.970;2022-07-04T14:09:48;1.60;;;1.50;;
2408;SDS011;8463;48.094;7.970;2022-07-04T14:12:14;3.60;;;1.80;;
2408;SDS011;8463;48.094;7.970;2022-07-04T14:14:41;1.70;;;1.43;;
2408;SDS011;8463;48.094;7.970;2022-07-04T14:17:07;4.70;;;1.57;;
2408;SDS011;8463;48.094;7.970;2022-07-04T14:19:33;2.27;;;1.40;;
2408;SDS011;8463;48.094;7.970;2022-07-04T14:21:59;1.60;;;1.50;;
2408;SDS011;8463;48.094;7.970;2022-07-04T14:24:25;4.10;;;2.13;;
2408;SDS011;8463;48.094;7.970;2022-07-04T14:26:54;2.93;;;1.63;;
2408;SDS011;8463;48.094;7.970;2022-07-04T14:29:19;1.60;;;1.40;;
2408;SDS011;8463;48.094;7.970;2022-07-04T14:31:46;1.73;;;1.63;;
2408;SDS011;8463;48.094;7.970;2022-07-04T14:34:12;1.50;;;1.37;;
2408;SDS011;8463;48.094;7.970;2022-07-04T14:36:38;2.80;;;2.00;;
2408;SDS011;8463;48.094;7.970;2022-07-04T14:39:05;4.90;;;2.37;;
2408;SDS011;8463;48.094;7.970;2022-07-04T14:41:31;1.57;;;1.47;;
2408;SDS011;8463;48.094;7.970;2022-07-04T14:43:57;1.63;;;1.53;;
2408;SDS011;8463;48.094;7.970;2022-07-04T14:46:22;2.23;;;1.60;;
2408;SDS011;8463;48.094;7.970;2022-07-04T14:48:48;1.80;;;1.70;;
2408;SDS011;8463;48.094;7.970;2022-07-04T14:51:14;1.30;;;1.20;;
2408;SDS011;8463;48.094;7.970;2022-07-04T14:53:40;3.43;;;1.50;;
2408;SDS011;8463;48.094;7.970;2022-07-04T14:56:05;2.50;;;1.90;;
2408;SDS011;8463;48.094;7.970;2022-07-04T14:58:31;4.20;;;1.50;;
2408;SDS011;8463;48.094;7.970;2022-07-04T15:00:57;1.80;;;1.70;;
2408;SDS011;8463;48.094;7.970;2022-07-04T15:03:23;2.20;;;1.80;;
2408;SDS011;8463;48.094;7.970;2022-07-04T15:05:49;2.50;;;2.30;;
2408;SDS011;8463;48.094;7.970;2022-07-04T15:08:14;2.43;;;1.80;;
2408;SDS011;8463;48.094;7.970;2022-07-04T15:10:40;1.60;;;1.50;;
2408;SDS011;8463;48.094;7.970;2022-07-04T15:13:06;1.53;;;1.30;;
2408;SDS011;8463;48.094;7.970;2022-07-04T15:15:32;3.27;;;1.50;;
2408;SDS011;8463;48.094;7.970;2022-07-04T15:17:58;1.83;;;1.50;;
2408;SDS011;8463;48.094;7.970;2022-07-04T15:20:24;1.97;;;1.50;;
2408;SDS011;8463;48.094;7.970;2022-07-04T15:23:08;2.90;;;1.60;;
2408;SDS011;8463;48.094;7.970;2022-07-04T15:25:52;2.37;;;1.40;;
2408;SDS011;8463;48.094;7.970;2022-07-04T15:28:18;2.57;;;1.87;;
2408;SDS011;8463;48.094;7.970;2022-07-04T15:30:44;1.77;;;1.60;;
2408;SDS011;8463;48.094;7.970;2022-07-04T15:33:09;2.30;;;1.77;;
2408;SDS011;8463;48.094;7.970;2022-07-04T15:35:40;1.60;;;1.50;;
2408;SDS011;8463;48.094;7.970;2022-07-04T15:38:07;3.40;;;1.50;;
2408;SDS011;8463;48.094;7.970;2022-07-04T15:40:32;1.80;;;1.70;;
2408;SDS011;8463;48.094;7.970;2022-07-04T15:42:58;1.80;;;1.53;;
2408;SDS011;8463;48.094;7.970;2022-07-04T15:45:24;3.60;;;1.70;;
2408;SDS011;8463;48.094;7.970;2022-07-04T15:47:49;2.20;;;1.70;;
2408;SDS011;8463;48.094;7.970;2022-07-04T15:50:15;1.90;;;1.60;;
2408;SDS011;8463;48.094;7.970;2022-07-04T15:52:41;4.00;;;1.93;;
2408;SDS011;8463;48.094;7.970;2022-07-04T15:55:07;2.40;;;1.70;;
2408;SDS011;8463;48.094;7.970;2022-07-04T15:57:32;1.80;;;1.57;;
2408;SDS011;8463;48.094;7.970;2022-07-04T15:59:58;1.60;;;1.50;;
2408;SDS011;8463;48.094;7.970;2022-07-04T16:02:24;1.63;;;1.43;;
2408;SDS011;8463;48.094;7.970;2022-07-04T16:04:50;2.37;;;2.00;;
2408;SDS011;8463;48.094;7.970;2022-07-04T16:07:15;2.67;;;1.80;;